Portada
METAR-TAF:

METAR-TAF

Aeropuertos :

Aeropuerto Internacional de Yap

Yap, Micronesia

latitud: 09-29N, longitud: 138-05E, altitud: 28 m

Observación

El informe se hizo hace 50 minutos, a las 15:50 UTC
Viento 4 kt con dirección variable
Temperatura 27°C
Humedad 94%
Presión 1009 hPa
Visibilidad: 19.3 km
Nubes dispersas a una altura de 1600 ft, Cumulus congestus.
Cielo nuboso a una altura de 30000 ft

METAR: PTYA 111550Z VRB04KT 12SM SCT016TCU BKN300 27/26 A2981 RMK SHRAB12E34 TCU NW SLP095 T02720260

Hora: 02:40 (16:40 UTC)

Pronóstico

El informe se hizo hace 5 horas y 12 minutos, a las 11:28 UTC
Pronóstico válido del 11 a las 12 UTC al 12 a las 12 UTC
Viento 8 kt del este
Visibilidad: 10 km
Nubes dispersas a una altura de 1600 ft
Nubes dispersas a una altura de 5000 ft
chaparrones en las proximidades

TAF: PTYA 111128Z 1112/1212 09008KT P6SM VCSH SCT016 SCT050

Observaciones y pronósticos meteorológicos de más de 4000 aeropuertos (mensajes METAR y TAF).

Los puntos amarillos y rojos representan las estaciones disponibles.

Ponga el ratón en el punto deseado para ver el nombre de la estación.

Haga clic para ver las observaciones y los pronósticos meteorológicos.

Para cambiar el mapa : haga clic en los botones verdes con una cruz de color negro para hacer un zoom, en el botón verde con un guión para alejar o en las flechas verdes para mapas adyacentes.


METAR-TAF: